sensor_id;sensor_type;location;lat;lon;timestamp;temperature;humidity
4985;DHT22;2509;49.902;8.600;2022-08-03T00:02:43;22.00;99.90
4985;DHT22;2509;49.902;8.600;2022-08-03T00:05:44;22.00;99.90
4985;DHT22;2509;49.902;8.600;2022-08-03T00:08:48;22.00;99.90
4985;DHT22;2509;49.902;8.600;2022-08-03T00:11:50;22.00;99.90
4985;DHT22;2509;49.902;8.600;2022-08-03T00:14:51;21.90;99.90
4985;DHT22;2509;49.902;8.600;2022-08-03T00:17:53;21.80;99.90
4985;DHT22;2509;49.902;8.600;2022-08-03T00:20:55;21.80;99.90
4985;DHT22;2509;49.902;8.600;2022-08-03T00:23:59;21.80;99.90
4985;DHT22;2509;49.902;8.600;2022-08-03T00:27:01;21.90;99.90
4985;DHT22;2509;49.902;8.600;2022-08-03T00:30:04;21.90;99.90
4985;DHT22;2509;49.902;8.600;2022-08-03T00:33:06;21.90;99.90
4985;DHT22;2509;49.902;8.600;2022-08-03T00:36:09;21.80;99.90
4985;DHT22;2509;49.902;8.600;2022-08-03T00:39:13;21.80;99.90
4985;DHT22;2509;49.902;8.600;2022-08-03T00:42:14;21.80;99.90
4985;DHT22;2509;49.902;8.600;2022-08-03T00:45:17;21.80;99.90
4985;DHT22;2509;49.902;8.600;2022-08-03T00:48:19;21.70;99.90
4985;DHT22;2509;49.902;8.600;2022-08-03T00:51:21;21.70;99.90
4985;DHT22;2509;49.902;8.600;2022-08-03T00:54:25;21.70;99.90
4985;DHT22;2509;49.902;8.600;2022-08-03T00:57:29;21.70;99.90
4985;DHT22;2509;49.902;8.600;2022-08-03T01:00:32;21.70;99.90
4985;DHT22;2509;49.902;8.600;2022-08-03T01:03:41;21.70;99.90
4985;DHT22;2509;49.902;8.600;2022-08-03T01:06:49;21.60;99.90
4985;DHT22;2509;49.902;8.600;2022-08-03T01:09:57;21.60;99.90
4985;DHT22;2509;49.902;8.600;2022-08-03T01:13:04;21.60;99.90
4985;DHT22;2509;49.902;8.600;2022-08-03T01:16:12;21.50;99.90
4985;DHT22;2509;49.902;8.600;2022-08-03T01:19:30;21.50;99.90
4985;DHT22;2509;49.902;8.600;2022-08-03T01:22:56;21.50;99.90
4985;DHT22;2509;49.902;8.600;2022-08-03T01:26:33;21.40;99.90
4985;DHT22;2509;49.902;8.600;2022-08-03T01:30:01;21.40;99.90
4985;DHT22;2509;49.902;8.600;2022-08-03T01:33:06;21.30;99.90
4985;DHT22;2509;49.902;8.600;2022-08-03T01:36:13;21.30;99.90
4985;DHT22;2509;49.902;8.600;2022-08-03T01:39:17;21.30;99.90
4985;DHT22;2509;49.902;8.600;2022-08-03T01:42:20;21.30;99.90
4985;DHT22;2509;49.902;8.600;2022-08-03T01:45:26;21.30;99.90
4985;DHT22;2509;49.902;8.600;2022-08-03T01:48:29;21.20;99.90
4985;DHT22;2509;49.902;8.600;2022-08-03T01:51:32;21.20;99.90
4985;DHT22;2509;49.902;8.600;2022-08-03T01:54:36;21.20;99.90
4985;DHT22;2509;49.902;8.600;2022-08-03T01:57:42;21.20;99.90
4985;DHT22;2509;49.902;8.600;2022-08-03T02:00:48;21.10;99.90
4985;DHT22;2509;49.902;8.600;2022-08-03T02:03:51;21.10;99.90
4985;DHT22;2509;49.902;8.600;2022-08-03T02:06:54;21.00;99.90
4985;DHT22;2509;49.902;8.600;2022-08-03T02:09:57;20.90;99.90
4985;DHT22;2509;49.902;8.600;2022-08-03T02:13:00;20.90;99.90
4985;DHT22;2509;49.902;8.600;2022-08-03T02:16:06;20.80;99.90
4985;DHT22;2509;49.902;8.600;2022-08-03T02:19:08;20.80;99.90
4985;DHT22;2509;49.902;8.600;2022-08-03T02:22:12;20.70;99.90
4985;DHT22;2509;49.902;8.600;2022-08-03T02:25:15;20.70;99.90
4985;DHT22;2509;49.902;8.600;2022-08-03T02:28:19;20.60;99.90
4985;DHT22;2509;49.902;8.600;2022-08-03T02:31:27;20.60;99.90
4985;DHT22;2509;49.902;8.600;2022-08-03T02:34:32;20.60;99.90
4985;DHT22;2509;49.902;8.600;2022-08-03T02:37:40;20.50;99.90
4985;DHT22;2509;49.902;8.600;2022-08-03T02:40:43;20.50;99.90
4985;DHT22;2509;49.902;8.600;2022-08-03T02:43:48;20.40;99.90
4985;DHT22;2509;49.902;8.600;2022-08-03T02:46:56;20.40;99.90
4985;DHT22;2509;49.902;8.600;2022-08-03T02:50:00;20.30;99.90
4985;DHT22;2509;49.902;8.600;2022-08-03T02:53:03;20.30;99.90
4985;DHT22;2509;49.902;8.600;2022-08-03T02:56:08;20.30;99.90
4985;DHT22;2509;49.902;8.600;2022-08-03T02:59:11;20.20;99.90
4985;DHT22;2509;49.902;8.600;2022-08-03T03:02:15;20.20;99.90
4985;DHT22;2509;49.902;8.600;2022-08-03T03:05:18;20.10;99.90
4985;DHT22;2509;49.902;8.600;2022-08-03T03:08:21;20.00;99.90
4985;DHT22;2509;49.902;8.600;2022-08-03T03:11:25;20.00;99.90
4985;DHT22;2509;49.902;8.600;2022-08-03T03:14:27;19.90;99.90
4985;DHT22;2509;49.902;8.600;2022-08-03T03:17:30;19.90;99.90
4985;DHT22;2509;49.902;8.600;2022-08-03T03:20:33;19.90;99.90
4985;DHT22;2509;49.902;8.600;2022-08-03T03:23:39;19.90;99.90
4985;DHT22;2509;49.902;8.600;2022-08-03T03:26:42;19.90;99.90
4985;DHT22;2509;49.902;8.600;2022-08-03T03:29:44;19.90;99.90
4985;DHT22;2509;49.902;8.600;2022-08-03T03:32:48;19.90;99.90
4985;DHT22;2509;49.902;8.600;2022-08-03T03:35:50;19.80;99.90
4985;DHT22;2509;49.902;8.600;2022-08-03T03:38:52;19.80;99.90
4985;DHT22;2509;49.902;8.600;2022-08-03T03:41:54;19.80;99.90
4985;DHT22;2509;49.902;8.600;2022-08-03T03:44:56;19.80;99.90
4985;DHT22;2509;49.902;8.600;2022-08-03T03:48:00;19.70;99.90
4985;DHT22;2509;49.902;8.600;2022-08-03T03:51:02;19.70;99.90
4985;DHT22;2509;49.902;8.600;2022-08-03T03:54:04;19.60;99.90
4985;DHT22;2509;49.902;8.600;2022-08-03T03:57:06;19.60;99.90
4985;DHT22;2509;49.902;8.600;2022-08-03T04:00:10;19.50;99.90
4985;DHT22;2509;49.902;8.600;2022-08-03T04:03:14;19.50;99.90
4985;DHT22;2509;49.902;8.600;2022-08-03T04:06:17;19.60;99.90
4985;DHT22;2509;49.902;8.600;2022-08-03T04:09:39;19.50;99.90
4985;DHT22;2509;49.902;8.600;2022-08-03T04:13:01;19.60;99.90
4985;DHT22;2509;49.902;8.600;2022-08-03T04:16:06;19.60;99.90
4985;DHT22;2509;49.902;8.600;2022-08-03T04:19:13;19.60;99.90
4985;DHT22;2509;49.902;8.600;2022-08-03T04:22:18;19.60;99.90
4985;DHT22;2509;49.902;8.600;2022-08-03T04:25:22;19.50;99.90
4985;DHT22;2509;49.902;8.600;2022-08-03T04:28:26;19.50;99.90
4985;DHT22;2509;49.902;8.600;2022-08-03T04:31:29;19.50;99.90
4985;DHT22;2509;49.902;8.600;2022-08-03T04:34:32;19.50;99.90
4985;DHT22;2509;49.902;8.600;2022-08-03T04:37:37;19.50;99.90
4985;DHT22;2509;49.902;8.600;2022-08-03T04:40:41;19.50;99.90
4985;DHT22;2509;49.902;8.600;2022-08-03T04:43:44;19.50;99.90
4985;DHT22;2509;49.902;8.600;2022-08-03T04:46:47;19.50;99.90
4985;DHT22;2509;49.902;8.600;2022-08-03T04:49:50;19.50;99.90
4985;DHT22;2509;49.902;8.600;2022-08-03T04:52:53;19.50;99.90
4985;DHT22;2509;49.902;8.600;2022-08-03T04:56:02;19.60;99.90
4985;DHT22;2509;49.902;8.600;2022-08-03T04:59:04;19.60;99.90
4985;DHT22;2509;49.902;8.600;2022-08-03T05:02:05;19.60;99.90
4985;DHT22;2509;49.902;8.600;2022-08-03T05:05:09;19.70;99.90
4985;DHT22;2509;49.902;8.600;2022-08-03T05:08:11;19.70;99.90
4985;DHT22;2509;49.902;8.600;2022-08-03T05:11:13;19.70;99.90
4985;DHT22;2509;49.902;8.600;2022-08-03T05:14:15;19.70;99.90
4985;DHT22;2509;49.902;8.600;2022-08-03T05:17:17;19.80;99.90
4985;DHT22;2509;49.902;8.600;2022-08-03T05:20:21;19.80;99.90
4985;DHT22;2509;49.902;8.600;2022-08-03T05:23:23;19.90;99.90
4985;DHT22;2509;49.902;8.600;2022-08-03T05:26:24;19.90;99.90
4985;DHT22;2509;49.902;8.600;2022-08-03T05:29:26;20.00;99.90
4985;DHT22;2509;49.902;8.600;2022-08-03T05:36:45;20.10;99.90
4985;DHT22;2509;49.902;8.600;2022-08-03T05:39:47;20.10;99.90
4985;DHT22;2509;49.902;8.600;2022-08-03T05:42:49;20.10;99.90
4985;DHT22;2509;49.902;8.600;2022-08-03T05:45:50;20.10;99.90
4985;DHT22;2509;49.902;8.600;2022-08-03T05:48:52;20.20;99.90
4985;DHT22;2509;49.902;8.600;2022-08-03T05:51:55;20.30;99.90
4985;DHT22;2509;49.902;8.600;2022-08-03T05:54:57;20.40;99.90
4985;DHT22;2509;49.902;8.600;2022-08-03T05:57:59;20.50;99.90
4985;DHT22;2509;49.902;8.600;2022-08-03T06:01:02;20.50;99.90
4985;DHT22;2509;49.902;8.600;2022-08-03T06:04:04;20.60;99.90
4985;DHT22;2509;49.902;8.600;2022-08-03T06:07:07;20.70;99.90
4985;DHT22;2509;49.902;8.600;2022-08-03T06:10:09;20.80;99.90
4985;DHT22;2509;49.902;8.600;2022-08-03T06:13:11;20.90;99.90
4985;DHT22;2509;49.902;8.600;2022-08-03T06:16:13;21.00;99.90
4985;DHT22;2509;49.902;8.600;2022-08-03T06:19:15;21.10;99.90
4985;DHT22;2509;49.902;8.600;2022-08-03T06:22:18;21.20;99.90
4985;DHT22;2509;49.902;8.600;2022-08-03T06:25:20;21.30;99.90
4985;DHT22;2509;49.902;8.600;2022-08-03T06:28:22;21.50;99.90
4985;DHT22;2509;49.902;8.600;2022-08-03T06:31:25;21.60;99.90
4985;DHT22;2509;49.902;8.600;2022-08-03T06:34:28;21.80;99.90
4985;DHT22;2509;49.902;8.600;2022-08-03T06:37:41;21.90;99.90
4985;DHT22;2509;49.902;8.600;2022-08-03T06:40:43;22.00;99.90
4985;DHT22;2509;49.902;8.600;2022-08-03T06:43:45;22.20;99.90
4985;DHT22;2509;49.902;8.600;2022-08-03T06:46:47;22.40;99.90
4985;DHT22;2509;49.902;8.600;2022-08-03T06:49:49;22.50;99.90
4985;DHT22;2509;49.902;8.600;2022-08-03T06:52:52;22.70;99.90
4985;DHT22;2509;49.902;8.600;2022-08-03T06:55:54;22.80;99.90
4985;DHT22;2509;49.902;8.600;2022-08-03T06:58:56;23.00;99.90
4985;DHT22;2509;49.902;8.600;2022-08-03T07:01:57;23.10;99.90
4985;DHT22;2509;49.902;8.600;2022-08-03T07:04:59;23.30;99.90
4985;DHT22;2509;49.902;8.600;2022-08-03T07:08:03;23.50;99.90
4985;DHT22;2509;49.902;8.600;2022-08-03T07:11:05;23.60;99.90
4985;DHT22;2509;49.902;8.600;2022-08-03T07:14:07;23.70;99.90
4985;DHT22;2509;49.902;8.600;2022-08-03T07:17:09;23.90;99.90
4985;DHT22;2509;49.902;8.600;2022-08-03T07:20:11;24.10;99.90
4985;DHT22;2509;49.902;8.600;2022-08-03T07:23:16;24.30;99.90
4985;DHT22;2509;49.902;8.600;2022-08-03T07:26:17;24.40;99.90
4985;DHT22;2509;49.902;8.600;2022-08-03T07:29:19;24.50;99.90
4985;DHT22;2509;49.902;8.600;2022-08-03T07:32:21;24.60;99.90
4985;DHT22;2509;49.902;8.600;2022-08-03T07:35:23;24.80;99.20
4985;DHT22;2509;49.902;8.600;2022-08-03T07:38:27;24.90;99.90
4985;DHT22;2509;49.902;8.600;2022-08-03T07:41:29;25.10;99.40
4985;DHT22;2509;49.902;8.600;2022-08-03T07:44:31;25.20;99.20
4985;DHT22;2509;49.902;8.600;2022-08-03T07:47:33;25.30;98.50
4985;DHT22;2509;49.902;8.600;2022-08-03T07:50:35;25.50;98.00
4985;DHT22;2509;49.902;8.600;2022-08-03T07:53:38;25.60;97.20
4985;DHT22;2509;49.902;8.600;2022-08-03T07:56:40;25.80;96.30
4985;DHT22;2509;49.902;8.600;2022-08-03T07:59:42;25.90;96.00
4985;DHT22;2509;49.902;8.600;2022-08-03T08:02:44;26.20;96.60
4985;DHT22;2509;49.902;8.600;2022-08-03T08:05:46;26.40;96.10
4985;DHT22;2509;49.902;8.600;2022-08-03T08:08:49;26.50;94.60
4985;DHT22;2509;49.902;8.600;2022-08-03T08:11:51;26.50;93.70
4985;DHT22;2509;49.902;8.600;2022-08-03T08:14:53;26.70;93.70
4985;DHT22;2509;49.902;8.600;2022-08-03T08:17:59;26.90;92.30
4985;DHT22;2509;49.902;8.600;2022-08-03T08:21:01;26.90;93.10
4985;DHT22;2509;49.902;8.600;2022-08-03T08:24:06;27.00;91.30
4985;DHT22;2509;49.902;8.600;2022-08-03T08:27:08;27.20;92.20
4985;DHT22;2509;49.902;8.600;2022-08-03T08:30:13;27.40;89.70
4985;DHT22;2509;49.902;8.600;2022-08-03T08:33:15;27.60;88.60
4985;DHT22;2509;49.902;8.600;2022-08-03T08:36:17;27.80;89.90
4985;DHT22;2509;49.902;8.600;2022-08-03T08:39:20;28.10;88.10
4985;DHT22;2509;49.902;8.600;2022-08-03T08:42:22;28.10;88.60
4985;DHT22;2509;49.902;8.600;2022-08-03T08:45:24;28.10;87.80
4985;DHT22;2509;49.902;8.600;2022-08-03T08:48:27;28.20;87.40
4985;DHT22;2509;49.902;8.600;2022-08-03T08:51:32;28.50;87.60
4985;DHT22;2509;49.902;8.600;2022-08-03T08:54:40;28.70;87.20
4985;DHT22;2509;49.902;8.600;2022-08-03T08:57:45;28.90;87.60
4985;DHT22;2509;49.902;8.600;2022-08-03T09:00:48;29.00;87.20
4985;DHT22;2509;49.902;8.600;2022-08-03T09:03:51;29.20;85.50
4985;DHT22;2509;49.902;8.600;2022-08-03T09:06:54;29.20;84.70
4985;DHT22;2509;49.902;8.600;2022-08-03T09:09:57;29.40;84.70
4985;DHT22;2509;49.902;8.600;2022-08-03T09:12:59;29.50;82.50
4985;DHT22;2509;49.902;8.600;2022-08-03T09:16:14;29.60;82.60
4985;DHT22;2509;49.902;8.600;2022-08-03T09:19:16;29.70;82.10
4985;DHT22;2509;49.902;8.600;2022-08-03T09:22:18;29.80;80.00
4985;DHT22;2509;49.902;8.600;2022-08-03T09:25:31;30.10;80.60
4985;DHT22;2509;49.902;8.600;2022-08-03T09:28:34;30.30;79.10
4985;DHT22;2509;49.902;8.600;2022-08-03T09:31:38;30.70;79.20
4985;DHT22;2509;49.902;8.600;2022-08-03T09:34:40;30.70;79.60
4985;DHT22;2509;49.902;8.600;2022-08-03T09:37:43;30.60;79.70
4985;DHT22;2509;49.902;8.600;2022-08-03T09:40:46;30.70;82.30
4985;DHT22;2509;49.902;8.600;2022-08-03T09:43:48;30.90;79.50
4985;DHT22;2509;49.902;8.600;2022-08-03T09:46:56;31.10;78.20
4985;DHT22;2509;49.902;8.600;2022-08-03T09:49:59;31.20;78.80
4985;DHT22;2509;49.902;8.600;2022-08-03T09:53:01;31.40;78.90
4985;DHT22;2509;49.902;8.600;2022-08-03T09:56:05;31.60;75.00
4985;DHT22;2509;49.902;8.600;2022-08-03T09:59:08;31.70;76.10
4985;DHT22;2509;49.902;8.600;2022-08-03T10:02:19;32.00;76.50
4985;DHT22;2509;49.902;8.600;2022-08-03T10:05:31;32.40;74.50
4985;DHT22;2509;49.902;8.600;2022-08-03T10:08:33;32.40;73.90
4985;DHT22;2509;49.902;8.600;2022-08-03T10:11:37;32.40;73.60
4985;DHT22;2509;49.902;8.600;2022-08-03T10:14:40;32.50;75.00
4985;DHT22;2509;49.902;8.600;2022-08-03T10:17:44;32.70;73.80
4985;DHT22;2509;49.902;8.600;2022-08-03T10:20:50;32.90;73.40
4985;DHT22;2509;49.902;8.600;2022-08-03T10:23:53;33.00;73.90
4985;DHT22;2509;49.902;8.600;2022-08-03T10:27:00;32.90;74.90
4985;DHT22;2509;49.902;8.600;2022-08-03T10:30:05;33.00;76.40
4985;DHT22;2509;49.902;8.600;2022-08-03T10:33:14;33.10;74.40
4985;DHT22;2509;49.902;8.600;2022-08-03T10:36:18;33.00;74.10
4985;DHT22;2509;49.902;8.600;2022-08-03T10:39:23;33.00;74.90
4985;DHT22;2509;49.902;8.600;2022-08-03T10:42:29;33.20;73.80
4985;DHT22;2509;49.902;8.600;2022-08-03T10:45:33;33.40;72.30
4985;DHT22;2509;49.902;8.600;2022-08-03T10:48:37;33.40;71.70
4985;DHT22;2509;49.902;8.600;2022-08-03T10:51:40;33.60;74.10
4985;DHT22;2509;49.902;8.600;2022-08-03T10:54:43;33.70;73.20
4985;DHT22;2509;49.902;8.600;2022-08-03T10:58:04;33.80;74.00
4985;DHT22;2509;49.902;8.600;2022-08-03T11:01:08;34.00;73.50
4985;DHT22;2509;49.902;8.600;2022-08-03T11:04:23;34.10;74.00
4985;DHT22;2509;49.902;8.600;2022-08-03T11:11:26;34.30;71.10
4985;DHT22;2509;49.902;8.600;2022-08-03T11:14:45;34.30;72.80
4985;DHT22;2509;49.902;8.600;2022-08-03T11:18:06;34.30;70.30
4985;DHT22;2509;49.902;8.600;2022-08-03T11:21:09;34.30;72.00
4985;DHT22;2509;49.902;8.600;2022-08-03T11:31:56;35.80;69.50
4985;DHT22;2509;49.902;8.600;2022-08-03T11:35:08;36.30;67.40
4985;DHT22;2509;49.902;8.600;2022-08-03T11:38:10;36.60;68.30
4985;DHT22;2509;49.902;8.600;2022-08-03T11:41:31;36.90;68.90
4985;DHT22;2509;49.902;8.600;2022-08-03T11:44:40;37.30;67.30
4985;DHT22;2509;49.902;8.600;2022-08-03T11:47:43;37.60;66.60
4985;DHT22;2509;49.902;8.600;2022-08-03T11:50:45;37.90;65.80
4985;DHT22;2509;49.902;8.600;2022-08-03T11:53:50;37.70;64.80
4985;DHT22;2509;49.902;8.600;2022-08-03T11:56:52;38.10;65.60
4985;DHT22;2509;49.902;8.600;2022-08-03T11:59:54;38.60;64.40
4985;DHT22;2509;49.902;8.600;2022-08-03T12:03:03;38.50;64.60
4985;DHT22;2509;49.902;8.600;2022-08-03T12:06:08;38.10;67.00
4985;DHT22;2509;49.902;8.600;2022-08-03T12:09:14;37.90;67.10
4985;DHT22;2509;49.902;8.600;2022-08-03T12:12:16;38.40;66.70
4985;DHT22;2509;49.902;8.600;2022-08-03T12:15:24;39.10;66.80
4985;DHT22;2509;49.902;8.600;2022-08-03T12:18:27;39.90;64.90
4985;DHT22;2509;49.902;8.600;2022-08-03T12:21:29;39.80;63.60
4985;DHT22;2509;49.902;8.600;2022-08-03T12:24:39;39.40;63.70
4985;DHT22;2509;49.902;8.600;2022-08-03T12:27:41;39.90;63.30
4985;DHT22;2509;49.902;8.600;2022-08-03T12:30:45;41.00;63.80
4985;DHT22;2509;49.902;8.600;2022-08-03T12:33:59;41.80;61.80
4985;DHT22;2509;49.902;8.600;2022-08-03T12:37:04;42.50;59.90
4985;DHT22;2509;49.902;8.600;2022-08-03T12:40:07;41.60;60.30
4985;DHT22;2509;49.902;8.600;2022-08-03T12:43:11;40.80;62.00
4985;DHT22;2509;49.902;8.600;2022-08-03T12:46:14;40.30;62.50
4985;DHT22;2509;49.902;8.600;2022-08-03T12:49:17;41.00;63.20
4985;DHT22;2509;49.902;8.600;2022-08-03T12:52:21;41.60;60.60
4985;DHT22;2509;49.902;8.600;2022-08-03T12:55:24;42.10;59.70
4985;DHT22;2509;49.902;8.600;2022-08-03T12:58:33;42.40;58.10
4985;DHT22;2509;49.902;8.600;2022-08-03T13:01:36;42.10;59.20
4985;DHT22;2509;49.902;8.600;2022-08-03T13:04:39;42.50;59.90
4985;DHT22;2509;49.902;8.600;2022-08-03T13:07:41;43.20;59.20
4985;DHT22;2509;49.902;8.600;2022-08-03T13:10:43;43.50;58.20
4985;DHT22;2509;49.902;8.600;2022-08-03T13:13:45;43.00;59.00
4985;DHT22;2509;49.902;8.600;2022-08-03T13:16:47;42.40;60.00
4985;DHT22;2509;49.902;8.600;2022-08-03T13:19:51;42.70;59.70
4985;DHT22;2509;49.902;8.600;2022-08-03T13:22:53;43.50;58.10
4985;DHT22;2509;49.902;8.600;2022-08-03T13:25:56;43.20;58.50
4985;DHT22;2509;49.902;8.600;2022-08-03T13:28:57;43.50;57.90
4985;DHT22;2509;49.902;8.600;2022-08-03T13:31:59;43.90;57.20
4985;DHT22;2509;49.902;8.600;2022-08-03T13:35:03;44.30;57.50
4985;DHT22;2509;49.902;8.600;2022-08-03T13:38:05;43.50;57.40
4985;DHT22;2509;49.902;8.600;2022-08-03T13:41:07;42.30;58.40
4985;DHT22;2509;49.902;8.600;2022-08-03T13:44:09;41.90;59.20
4985;DHT22;2509;49.902;8.600;2022-08-03T13:47:10;42.40;58.40
4985;DHT22;2509;49.902;8.600;2022-08-03T13:50:13;42.70;58.60
4985;DHT22;2509;49.902;8.600;2022-08-03T13:53:15;41.80;58.10
4985;DHT22;2509;49.902;8.600;2022-08-03T13:56:17;42.40;58.10
4985;DHT22;2509;49.902;8.600;2022-08-03T13:59:19;43.70;57.60
4985;DHT22;2509;49.902;8.600;2022-08-03T14:02:20;44.90;55.80
4985;DHT22;2509;49.902;8.600;2022-08-03T14:05:24;45.30;54.10
4985;DHT22;2509;49.902;8.600;2022-08-03T14:08:25;44.80;54.80
4985;DHT22;2509;49.902;8.600;2022-08-03T14:11:27;45.00;54.00
4985;DHT22;2509;49.902;8.600;2022-08-03T14:14:29;45.10;54.80
4985;DHT22;2509;49.902;8.600;2022-08-03T14:17:31;45.20;54.30
4985;DHT22;2509;49.902;8.600;2022-08-03T14:20:34;45.70;54.30
4985;DHT22;2509;49.902;8.600;2022-08-03T14:23:36;46.00;53.70
4985;DHT22;2509;49.902;8.600;2022-08-03T14:26:38;46.10;54.40
4985;DHT22;2509;49.902;8.600;2022-08-03T14:29:40;46.30;53.10
4985;DHT22;2509;49.902;8.600;2022-08-03T14:32:42;45.10;54.70
4985;DHT22;2509;49.902;8.600;2022-08-03T14:35:45;44.50;54.80
4985;DHT22;2509;49.902;8.600;2022-08-03T14:38:47;44.90;54.70
4985;DHT22;2509;49.902;8.600;2022-08-03T14:41:48;45.30;53.20
4985;DHT22;2509;49.902;8.600;2022-08-03T14:44:50;45.00;55.20
4985;DHT22;2509;49.902;8.600;2022-08-03T14:47:52;45.40;53.70
4985;DHT22;2509;49.902;8.600;2022-08-03T14:50:55;45.90;52.80
4985;DHT22;2509;49.902;8.600;2022-08-03T14:53:57;46.20;52.10
4985;DHT22;2509;49.902;8.600;2022-08-03T14:56:59;45.60;53.60
4985;DHT22;2509;49.902;8.600;2022-08-03T15:00:01;44.60;54.50
4985;DHT22;2509;49.902;8.600;2022-08-03T15:03:03;44.30;54.90
4985;DHT22;2509;49.902;8.600;2022-08-03T15:06:06;42.50;56.60
4985;DHT22;2509;49.902;8.600;2022-08-03T15:09:08;42.30;57.30
4985;DHT22;2509;49.902;8.600;2022-08-03T15:12:10;42.90;56.60
4985;DHT22;2509;49.902;8.600;2022-08-03T15:15:12;43.40;55.80
4985;DHT22;2509;49.902;8.600;2022-08-03T15:18:14;44.30;54.40
4985;DHT22;2509;49.902;8.600;2022-08-03T15:21:17;45.20;54.80
4985;DHT22;2509;49.902;8.600;2022-08-03T15:24:19;45.90;53.40
4985;DHT22;2509;49.902;8.600;2022-08-03T15:27:20;45.30;54.10
4985;DHT22;2509;49.902;8.600;2022-08-03T15:30:22;44.80;54.80
4985;DHT22;2509;49.902;8.600;2022-08-03T15:33:24;44.40;54.40
4985;DHT22;2509;49.902;8.600;2022-08-03T15:36:27;44.50;54.30
4985;DHT22;2509;49.902;8.600;2022-08-03T15:39:29;44.60;54.70
4985;DHT22;2509;49.902;8.600;2022-08-03T15:42:32;44.30;54.70
4985;DHT22;2509;49.902;8.600;2022-08-03T15:45:34;44.00;53.90
4985;DHT22;2509;49.902;8.600;2022-08-03T15:48:36;43.50;55.30
4985;DHT22;2509;49.902;8.600;2022-08-03T15:51:39;43.00;55.80
4985;DHT22;2509;49.902;8.600;2022-08-03T15:54:41;42.30;57.00
4985;DHT22;2509;49.902;8.600;2022-08-03T15:57:42;40.90;58.40
4985;DHT22;2509;49.902;8.600;2022-08-03T16:00:44;39.50;60.10
4985;DHT22;2509;49.902;8.600;2022-08-03T16:03:46;39.40;60.20
4985;DHT22;2509;49.902;8.600;2022-08-03T16:06:49;39.60;59.70
4985;DHT22;2509;49.902;8.600;2022-08-03T16:09:51;39.00;59.70
4985;DHT22;2509;49.902;8.600;2022-08-03T16:12:53;38.30;61.40
4985;DHT22;2509;49.902;8.600;2022-08-03T16:15:55;38.10;62.80
4985;DHT22;2509;49.902;8.600;2022-08-03T16:18:57;38.50;61.80
4985;DHT22;2509;49.902;8.600;2022-08-03T16:22:00;38.60;61.00
4985;DHT22;2509;49.902;8.600;2022-08-03T16:25:01;38.30;60.50
4985;DHT22;2509;49.902;8.600;2022-08-03T16:28:03;38.00;60.90
4985;DHT22;2509;49.902;8.600;2022-08-03T16:31:05;37.70;62.50
4985;DHT22;2509;49.902;8.600;2022-08-03T16:34:08;37.40;63.10
4985;DHT22;2509;49.902;8.600;2022-08-03T16:37:11;37.40;63.50
4985;DHT22;2509;49.902;8.600;2022-08-03T16:40:13;37.40;63.80
4985;DHT22;2509;49.902;8.600;2022-08-03T16:43:15;37.20;63.60
4985;DHT22;2509;49.902;8.600;2022-08-03T16:46:16;37.10;64.30
4985;DHT22;2509;49.902;8.600;2022-08-03T16:49:18;36.80;64.20
4985;DHT22;2509;49.902;8.600;2022-08-03T16:52:22;36.40;64.80
4985;DHT22;2509;49.902;8.600;2022-08-03T16:55:24;36.20;65.40
4985;DHT22;2509;49.902;8.600;2022-08-03T16:58:25;36.10;65.60
4985;DHT22;2509;49.902;8.600;2022-08-03T17:01:28;36.00;64.40
4985;DHT22;2509;49.902;8.600;2022-08-03T17:04:30;35.90;65.00
4985;DHT22;2509;49.902;8.600;2022-08-03T17:07:33;35.90;64.70
4985;DHT22;2509;49.902;8.600;2022-08-03T17:10:35;35.80;64.60
4985;DHT22;2509;49.902;8.600;2022-08-03T17:13:37;35.70;64.80
4985;DHT22;2509;49.902;8.600;2022-08-03T17:16:40;35.50;65.80
4985;DHT22;2509;49.902;8.600;2022-08-03T17:19:44;35.30;64.40
4985;DHT22;2509;49.902;8.600;2022-08-03T17:22:52;35.20;65.80
4985;DHT22;2509;49.902;8.600;2022-08-03T17:25:56;35.20;69.10
4985;DHT22;2509;49.902;8.600;2022-08-03T17:29:03;35.10;68.00
4985;DHT22;2509;49.902;8.600;2022-08-03T17:32:06;34.90;68.90
4985;DHT22;2509;49.902;8.600;2022-08-03T17:35:08;34.80;70.40
4985;DHT22;2509;49.902;8.600;2022-08-03T17:38:12;34.70;72.20
4985;DHT22;2509;49.902;8.600;2022-08-03T17:41:15;34.60;74.50
4985;DHT22;2509;49.902;8.600;2022-08-03T17:44:19;34.40;76.10
4985;DHT22;2509;49.902;8.600;2022-08-03T17:47:21;34.30;76.70
4985;DHT22;2509;49.902;8.600;2022-08-03T17:50:22;34.20;73.90
4985;DHT22;2509;49.902;8.600;2022-08-03T17:53:28;33.90;76.90
4985;DHT22;2509;49.902;8.600;2022-08-03T17:56:38;33.80;75.00
4985;DHT22;2509;49.902;8.600;2022-08-03T17:59:44;33.70;76.40
4985;DHT22;2509;49.902;8.600;2022-08-03T18:02:54;33.50;79.10
4985;DHT22;2509;49.902;8.600;2022-08-03T18:06:15;33.40;78.60
4985;DHT22;2509;49.902;8.600;2022-08-03T18:09:20;33.30;80.30
4985;DHT22;2509;49.902;8.600;2022-08-03T18:12:26;33.10;81.90
4985;DHT22;2509;49.902;8.600;2022-08-03T18:15:31;33.00;83.10
4985;DHT22;2509;49.902;8.600;2022-08-03T18:18:37;32.80;83.00
4985;DHT22;2509;49.902;8.600;2022-08-03T18:21:41;32.70;83.50
4985;DHT22;2509;49.902;8.600;2022-08-03T18:24:45;32.60;85.30
4985;DHT22;2509;49.902;8.600;2022-08-03T18:27:49;32.50;86.90
4985;DHT22;2509;49.902;8.600;2022-08-03T18:30:51;32.40;86.40
4985;DHT22;2509;49.902;8.600;2022-08-03T18:33:54;32.20;86.40
4985;DHT22;2509;49.902;8.600;2022-08-03T18:36:56;32.10;88.40
4985;DHT22;2509;49.902;8.600;2022-08-03T18:40:02;31.90;90.10
4985;DHT22;2509;49.902;8.600;2022-08-03T18:43:05;31.70;91.40
4985;DHT22;2509;49.902;8.600;2022-08-03T18:46:08;31.60;92.50
4985;DHT22;2509;49.902;8.600;2022-08-03T18:49:26;31.40;93.10
4985;DHT22;2509;49.902;8.600;2022-08-03T18:52:36;31.30;93.90
4985;DHT22;2509;49.902;8.600;2022-08-03T18:55:45;31.20;93.60
4985;DHT22;2509;49.902;8.600;2022-08-03T18:58:50;31.10;93.20
4985;DHT22;2509;49.902;8.600;2022-08-03T19:02:00;31.00;92.70
4985;DHT22;2509;49.902;8.600;2022-08-03T19:05:05;30.90;92.50
4985;DHT22;2509;49.902;8.600;2022-08-03T19:08:14;30.80;92.00
4985;DHT22;2509;49.902;8.600;2022-08-03T19:11:22;30.70;91.40
4985;DHT22;2509;49.902;8.600;2022-08-03T19:14:29;30.60;92.20
4985;DHT22;2509;49.902;8.600;2022-08-03T19:17:39;30.50;93.20
4985;DHT22;2509;49.902;8.600;2022-08-03T19:20:43;30.40;95.50
4985;DHT22;2509;49.902;8.600;2022-08-03T19:23:46;30.20;96.10
4985;DHT22;2509;49.902;8.600;2022-08-03T19:26:52;30.10;93.70
4985;DHT22;2509;49.902;8.600;2022-08-03T19:29:56;30.10;93.30
4985;DHT22;2509;49.902;8.600;2022-08-03T19:32:59;30.00;93.80
4985;DHT22;2509;49.902;8.600;2022-08-03T19:36:01;29.90;94.50
4985;DHT22;2509;49.902;8.600;2022-08-03T19:39:04;29.80;95.80
4985;DHT22;2509;49.902;8.600;2022-08-03T19:42:10;29.70;96.00
4985;DHT22;2509;49.902;8.600;2022-08-03T19:45:15;29.60;96.60
4985;DHT22;2509;49.902;8.600;2022-08-03T19:48:19;29.60;97.00
4985;DHT22;2509;49.902;8.600;2022-08-03T19:51:21;29.50;97.10
4985;DHT22;2509;49.902;8.600;2022-08-03T19:54:26;29.40;95.80
4985;DHT22;2509;49.902;8.600;2022-08-03T19:57:32;29.30;94.30
4985;DHT22;2509;49.902;8.600;2022-08-03T20:00:36;29.30;94.00
4985;DHT22;2509;49.902;8.600;2022-08-03T20:03:39;29.20;95.70
4985;DHT22;2509;49.902;8.600;2022-08-03T20:06:41;29.10;95.40
4985;DHT22;2509;49.902;8.600;2022-08-03T20:09:43;29.00;94.50
4985;DHT22;2509;49.902;8.600;2022-08-03T20:12:47;28.90;94.40
4985;DHT22;2509;49.902;8.600;2022-08-03T20:15:50;28.90;93.80
4985;DHT22;2509;49.902;8.600;2022-08-03T20:18:51;28.80;94.80